Time;durP1;ratioP1;P1;durP2;ratioP2;P2;SDS_P1;SDS_P2;PMS_P1;PMS_P2;Temp;Humidity;BMP_temperature;BMP_pressure;BME280_temperature;BME280_humidity;BME280_pressure;Samples;Min_cycle;Max_cycle;Signal;HPM_P1;HPM_P2
2023/08/06 00:00:28;;;;;;;5.73;5.23;;;15.40;99.90;;;;;;5035213;28;20492;-70
2023/08/06 00:02:56;;;;;;;5.77;5.37;;;15.40;99.90;;;;;;5034713;28;20438;-70
2023/08/06 00:05:24;;;;;;;5.80;5.30;;;15.40;99.90;;;;;;5035014;28;20949;-70
2023/08/06 00:07:54;;;;;;;9.40;8.50;;;15.50;99.90;;;;;;5035427;28;20441;-70
2023/08/06 00:10:22;;;;;;;7.73;7.13;;;15.40;99.90;;;;;;5035156;28;20842;-70
2023/08/06 00:12:50;;;;;;;6.43;5.93;;;15.40;99.90;;;;;;5034822;28;20581;-70
2023/08/06 00:15:19;;;;;;;7.53;6.83;;;15.50;99.90;;;;;;5034874;28;20439;-70
2023/08/06 00:17:47;;;;;;;8.13;7.20;;;15.40;99.90;;;;;;5034988;28;20413;-70
2023/08/06 00:20:15;;;;;;;7.87;7.27;;;15.50;99.90;;;;;;5034744;28;20410;-70
2023/08/06 00:22:43;;;;;;;8.10;7.43;;;15.50;99.90;;;;;;5034691;28;20462;-70
2023/08/06 00:25:13;;;;;;;7.87;7.17;;;15.40;99.90;;;;;;5034940;28;20427;-70
2023/08/06 00:27:41;;;;;;;7.47;6.87;;;15.40;99.90;;;;;;5034752;28;20539;-70
2023/08/06 00:30:09;;;;;;;7.30;6.70;;;15.40;99.90;;;;;;5034597;28;20470;-70
2023/08/06 00:32:37;;;;;;;8.50;7.70;;;15.40;99.90;;;;;;5033153;28;21059;-70
2023/08/06 00:35:06;;;;;;;7.23;6.63;;;15.40;99.90;;;;;;5034476;28;20818;-70
2023/08/06 00:37:35;;;;;;;6.77;6.17;;;15.40;99.90;;;;;;5034749;28;20435;-70
2023/08/06 00:40:03;;;;;;;7.33;6.70;;;15.40;99.90;;;;;;5034435;28;20471;-70
2023/08/06 00:42:32;;;;;;;6.80;6.30;;;15.40;99.90;;;;;;5033060;28;20503;-70
2023/08/06 00:45:00;;;;;;;6.40;5.90;;;15.40;99.90;;;;;;5033090;28;20542;-70
2023/08/06 00:47:29;;;;;;;7.20;6.63;;;15.40;99.90;;;;;;5034280;28;20450;-70
2023/08/06 00:49:57;;;;;;;8.23;7.60;;;15.40;99.90;;;;;;5032980;28;20549;-70
2023/08/06 00:52:25;;;;;;;8.33;7.63;;;15.40;99.90;;;;;;5032790;28;20493;-70
2023/08/06 00:54:53;;;;;;;8.33;7.57;;;15.40;99.90;;;;;;5033994;28;20468;-70
2023/08/06 00:57:25;;;;;;;9.13;8.43;;;15.40;99.90;;;;;;5033067;28;20942;-70
2023/08/06 00:59:55;;;;;;;9.10;8.30;;;15.40;99.90;;;;;;5032858;28;20446;-70
2023/08/06 01:02:24;;;;;;;8.27;7.67;;;15.40;99.90;;;;;;5034136;28;20431;-70
2023/08/06 01:04:52;;;;;;;7.70;6.97;;;15.40;99.90;;;;;;5032647;28;20447;-70
2023/08/06 01:07:30;;;;;;;7.20;6.60;;;15.40;99.90;;;;;;5034207;28;20554;-70
2023/08/06 01:10:16;;;;;;;9.97;7.20;;;15.40;99.90;;;;;;5034024;28;20423;-70
2023/08/06 01:12:51;;;;;;;6.60;6.10;;;15.40;99.90;;;;;;5032058;28;20547;-70
2023/08/06 01:15:32;;;;;;;6.90;6.30;;;15.40;99.90;;;;;;5032253;28;20467;-70
2023/08/06 01:18:00;;;;;;;6.60;6.10;;;15.40;99.90;;;;;;5032819;28;20525;-70
2023/08/06 01:20:31;;;;;;;8.77;6.50;;;15.40;99.90;;;;;;5034284;28;20412;-70
2023/08/06 01:22:59;;;;;;;6.67;6.17;;;15.40;99.90;;;;;;5033857;28;20440;-70
2023/08/06 01:25:34;;;;;;;6.77;6.23;;;15.40;99.90;;;;;;5032334;28;20444;-70
2023/08/06 01:28:10;;;;;;;6.90;6.20;;;15.40;99.90;;;;;;5032310;28;20579;-70
2023/08/06 01:30:42;;;;;;;5.80;5.30;;;15.40;99.90;;;;;;5033910;28;20423;-70
2023/08/06 01:33:15;;;;;;;6.10;5.60;;;15.40;99.90;;;;;;5032662;28;20529;-70
2023/08/06 01:35:47;;;;;;;5.67;5.23;;;15.40;99.90;;;;;;5033405;28;20546;-70
2023/08/06 01:38:15;;;;;;;5.83;5.33;;;15.40;99.90;;;;;;5032280;28;20462;-70
2023/08/06 01:40:43;;;;;;;6.00;5.50;;;15.40;99.90;;;;;;5032124;28;20545;-70
2023/08/06 01:43:11;;;;;;;5.90;5.30;;;15.30;99.90;;;;;;5033655;28;20476;-70
2023/08/06 01:45:39;;;;;;;5.80;5.40;;;15.40;99.90;;;;;;5033357;28;20850;-70
2023/08/06 01:48:08;;;;;;;6.00;5.53;;;15.40;99.90;;;;;;5032070;28;20453;-70
2023/08/06 01:50:36;;;;;;;5.50;5.10;;;15.30;99.90;;;;;;5032056;28;20447;-70
2023/08/06 01:53:05;;;;;;;6.60;5.40;;;15.30;99.90;;;;;;5031905;28;20975;-70
2023/08/06 01:55:33;;;;;;;6.30;5.73;;;15.30;99.90;;;;;;5031900;28;21014;-70
2023/08/06 01:58:02;;;;;;;6.37;5.87;;;15.30;99.90;;;;;;5031953;28;20450;-70
2023/08/06 02:00:30;;;;;;;6.77;6.17;;;15.30;99.90;;;;;;5031915;28;20488;-70
2023/08/06 02:02:58;;;;;;;5.33;4.80;;;15.30;99.90;;;;;;5033906;28;20451;-70
2023/08/06 02:05:26;;;;;;;5.50;5.10;;;15.30;99.90;;;;;;5031837;28;20429;-70
2023/08/06 02:07:54;;;;;;;5.80;5.30;;;15.30;99.90;;;;;;5031886;28;20862;-70
2023/08/06 02:10:23;;;;;;;6.40;5.90;;;15.30;99.90;;;;;;5031818;28;20801;-70
2023/08/06 02:12:52;;;;;;;6.03;5.53;;;15.30;99.90;;;;;;5031621;28;20510;-70
2023/08/06 02:15:20;;;;;;;6.53;6.03;;;15.30;99.90;;;;;;5031714;28;20467;-70
2023/08/06 02:17:48;;;;;;;6.50;5.90;;;15.30;99.90;;;;;;5031739;28;20449;-70
2023/08/06 02:20:16;;;;;;;7.37;6.77;;;15.30;99.90;;;;;;5031710;28;20447;-70
2023/08/06 02:22:44;;;;;;;7.03;6.53;;;15.30;99.90;;;;;;5031582;28;20505;-70
2023/08/06 02:25:13;;;;;;;7.13;6.53;;;15.30;99.90;;;;;;5033337;28;20932;-70
2023/08/06 02:27:45;;;;;;;6.50;6.00;;;15.20;99.90;;;;;;5036440;28;20438;-70
2023/08/06 02:30:13;;;;;;;6.47;6.00;;;15.20;99.90;;;;;;5035686;28;20541;-70
2023/08/06 02:32:41;;;;;;;7.07;6.37;;;15.20;99.90;;;;;;5036957;28;20450;-70
2023/08/06 02:35:09;;;;;;;7.40;6.80;;;15.20;99.90;;;;;;5036723;28;20513;-70
2023/08/06 02:37:37;;;;;;;6.60;6.10;;;15.20;99.90;;;;;;5035433;28;20449;-70
2023/08/06 02:40:06;;;;;;;6.73;6.20;;;15.20;99.90;;;;;;5036689;28;20423;-70
2023/08/06 02:42:35;;;;;;;7.37;6.83;;;15.20;99.90;;;;;;5036595;28;20424;-70
2023/08/06 02:45:05;;;;;;;7.60;6.57;;;15.20;99.90;;;;;;5036803;28;20514;-70
2023/08/06 02:47:33;;;;;;;7.20;6.60;;;15.20;99.90;;;;;;5035300;28;20464;-70
2023/08/06 02:50:02;;;;;;;7.37;6.87;;;15.20;99.90;;;;;;5035267;28;20508;-70
2023/08/06 02:52:31;;;;;;;7.77;7.00;;;15.20;99.90;;;;;;5035127;28;20499;-70
2023/08/06 02:55:00;;;;;;;7.67;6.87;;;15.20;99.90;;;;;;5035038;28;20917;-70
2023/08/06 02:57:30;;;;;;;7.50;6.73;;;15.20;99.90;;;;;;5035432;28;20537;-70
2023/08/06 02:59:58;;;;;;;7.13;6.53;;;15.20;99.90;;;;;;5035087;28;20449;-70
2023/08/06 03:02:28;;;;;;;8.17;7.47;;;15.20;99.90;;;;;;5034948;28;20463;-70
2023/08/06 03:05:06;;;;;;;8.37;7.67;;;15.10;99.90;;;;;;5035066;28;20439;-70
2023/08/06 03:07:38;;;;;;;8.63;7.73;;;15.10;99.90;;;;;;5035182;28;20483;-70
2023/08/06 03:10:13;;;;;;;8.87;8.17;;;15.10;99.90;;;;;;5034776;28;20413;-70
2023/08/06 03:12:43;;;;;;;7.53;6.93;;;15.10;99.90;;;;;;5034652;28;20512;-69
2023/08/06 03:15:11;;;;;;;8.90;8.20;;;15.10;99.90;;;;;;5035482;28;20470;-70
2023/08/06 03:17:44;;;;;;;8.00;7.40;;;15.10;99.90;;;;;;5034683;28;20450;-70
2023/08/06 03:20:13;;;;;;;8.13;7.20;;;15.00;99.90;;;;;;5034658;28;20465;-70
2023/08/06 03:22:41;;;;;;;8.50;7.90;;;15.00;99.90;;;;;;5034859;28;20493;-70
2023/08/06 03:25:09;;;;;;;8.23;7.63;;;15.00;99.90;;;;;;5034595;28;20416;-69
2023/08/06 03:27:38;;;;;;;8.80;8.03;;;15.00;99.90;;;;;;5034538;28;20976;-70
2023/08/06 03:30:08;;;;;;;8.73;7.93;;;15.10;99.90;;;;;;5034466;28;20509;-70
2023/08/06 03:32:38;;;;;;;9.17;8.47;;;15.00;99.90;;;;;;5034577;28;20478;-70
2023/08/06 03:35:09;;;;;;;9.10;8.30;;;15.00;99.90;;;;;;5034321;28;20468;-70
2023/08/06 03:37:37;;;;;;;8.50;7.90;;;15.00;99.90;;;;;;5035270;28;20442;-70
2023/08/06 03:40:08;;;;;;;9.13;8.43;;;15.00;99.90;;;;;;5034319;28;20455;-70
2023/08/06 03:42:37;;;;;;;8.40;7.80;;;15.00;99.90;;;;;;5034498;28;20475;-70
2023/08/06 03:45:06;;;;;;;9.00;8.13;;;15.00;99.90;;;;;;5034282;28;20443;-70
2023/08/06 03:47:35;;;;;;;9.00;8.20;;;15.00;99.90;;;;;;5034384;28;20443;-70
2023/08/06 03:50:03;;;;;;;9.03;8.30;;;15.00;99.90;;;;;;5034254;28;20964;-70
2023/08/06 03:52:33;;;;;;;9.50;8.80;;;15.00;99.90;;;;;;5033974;28;20565;-70
2023/08/06 03:55:02;;;;;;;10.00;9.20;;;15.00;99.90;;;;;;5035812;28;20435;-70
2023/08/06 03:57:30;;;;;;;11.37;10.50;;;15.00;99.90;;;;;;5034043;28;20538;-70
2023/08/06 03:59:58;;;;;;;10.83;10.03;;;15.00;99.90;;;;;;5033936;28;20489;-69
2023/08/06 04:02:30;;;;;;;10.50;9.57;;;15.00;99.90;;;;;;5035446;28;20870;-69
2023/08/06 04:04:58;;;;;;;11.80;10.53;;;15.00;99.90;;;;;;5033832;28;20447;-70
2023/08/06 04:07:27;;;;;;;10.97;9.87;;;14.90;99.90;;;;;;5033829;28;20542;-70
2023/08/06 04:09:58;;;;;;;9.97;9.20;;;14.90;99.90;;;;;;5033800;28;20461;-70
2023/08/06 04:12:27;;;;;;;10.20;9.40;;;14.90;99.90;;;;;;5033558;28;20452;-70
2023/08/06 04:14:56;;;;;;;11.60;10.70;;;14.90;99.90;;;;;;5034915;28;20438;-70
2023/08/06 04:17:24;;;;;;;10.90;10.00;;;14.90;99.90;;;;;;5033568;28;21060;-70
2023/08/06 04:19:54;;;;;;;10.67;9.83;;;14.90;99.90;;;;;;5035362;28;20459;-70
2023/08/06 04:22:23;;;;;;;10.73;9.80;;;14.90;99.90;;;;;;5033541;28;20446;-70
2023/08/06 04:24:51;;;;;;;11.57;10.57;;;14.90;99.90;;;;;;5034695;28;20439;-70
2023/08/06 04:27:21;;;;;;;10.60;9.80;;;15.00;99.90;;;;;;5033670;28;20870;-70
2023/08/06 04:29:50;;;;;;;10.57;9.77;;;14.90;99.90;;;;;;5033435;28;20439;-70
2023/08/06 04:32:19;;;;;;;11.77;10.77;;;15.00;99.90;;;;;;5033270;28;20451;-70
2023/08/06 04:34:50;;;;;;;11.07;10.27;;;15.00;99.90;;;;;;5033749;28;20426;-70
2023/08/06 04:37:19;;;;;;;11.57;10.67;;;15.00;99.90;;;;;;5033179;28;20474;-70
2023/08/06 04:39:47;;;;;;;11.73;10.80;;;14.90;99.90;;;;;;5034418;28;20836;-70
2023/08/06 04:42:16;;;;;;;12.70;11.67;;;15.00;99.90;;;;;;5033053;28;20451;-70
2023/08/06 04:44:45;;;;;;;12.83;11.83;;;15.00;99.90;;;;;;5034560;28;20518;-70
2023/08/06 04:47:13;;;;;;;11.83;10.93;;;15.00;99.90;;;;;;5034514;28;20433;-70
2023/08/06 04:49:43;;;;;;;12.17;11.17;;;15.00;99.90;;;;;;5033213;28;20438;-70
2023/08/06 04:52:11;;;;;;;14.20;13.10;;;15.00;99.90;;;;;;5034070;28;20493;-70
2023/08/06 04:54:39;;;;;;;12.57;11.60;;;15.00;99.90;;;;;;5034410;28;20928;-70
2023/08/06 04:57:07;;;;;;;13.33;12.23;;;15.00;99.90;;;;;;5032869;28;20562;-70
2023/08/06 04:59:35;;;;;;;12.10;11.10;;;15.00;99.90;;;;;;5034054;28;20418;-70
2023/08/06 05:02:05;;;;;;;12.43;11.53;;;15.00;99.90;;;;;;5034010;28;20470;-70
2023/08/06 05:04:33;;;;;;;13.17;12.17;;;15.00;99.90;;;;;;5034262;28;20542;-70
2023/08/06 05:07:01;;;;;;;13.30;12.17;;;15.00;99.90;;;;;;5032693;28;20443;-70
2023/08/06 05:09:29;;;;;;;12.03;10.83;;;15.00;99.90;;;;;;5034158;28;21024;-70
2023/08/06 05:11:57;;;;;;;12.23;11.13;;;15.00;99.90;;;;;;5033768;28;20521;-70
2023/08/06 05:14:25;;;;;;;11.30;10.30;;;15.00;99.90;;;;;;5033704;28;20541;-70
2023/08/06 05:16:53;;;;;;;12.87;11.80;;;15.10;99.90;;;;;;5032426;28;20463;-70
2023/08/06 05:19:23;;;;;;;12.07;11.07;;;15.10;99.90;;;;;;5033752;28;20526;-70
2023/08/06 05:21:51;;;;;;;12.47;11.53;;;15.10;99.90;;;;;;5033953;28;20816;-70
2023/08/06 05:24:19;;;;;;;13.70;12.60;;;15.10;99.90;;;;;;5034197;28;20458;-69
2023/08/06 05:26:50;;;;;;;13.20;12.10;;;15.10;99.90;;;;;;5033673;28;20423;-70
2023/08/06 05:29:18;;;;;;;12.70;11.70;;;15.10;99.90;;;;;;5032349;28;20542;-70
2023/08/06 05:31:46;;;;;;;13.50;12.40;;;15.10;99.90;;;;;;5033554;28;20489;-70
2023/08/06 05:34:14;;;;;;;13.90;12.60;;;15.10;99.90;;;;;;5033702;28;20526;-70
2023/08/06 05:36:44;;;;;;;13.17;12.17;;;15.10;99.90;;;;;;5033418;28;20829;-69
2023/08/06 05:39:12;;;;;;;13.23;12.20;;;15.10;99.90;;;;;;5033677;28;21003;-70
2023/08/06 05:41:40;;;;;;;12.43;11.47;;;15.10;99.90;;;;;;5033916;28;20525;-70
2023/08/06 05:44:08;;;;;;;14.33;13.23;;;15.10;99.90;;;;;;5033685;28;20479;-69
2023/08/06 05:46:36;;;;;;;12.40;11.50;;;15.10;99.90;;;;;;5033577;28;20928;-70
2023/08/06 05:49:05;;;;;;;13.80;12.70;;;15.20;99.90;;;;;;5033607;28;20438;-70
2023/08/06 05:51:33;;;;;;;12.90;12.00;;;15.10;99.90;;;;;;5031935;28;20501;-70
2023/08/06 05:54:02;;;;;;;13.63;12.63;;;15.10;99.90;;;;;;5033204;28;20886;-70
2023/08/06 05:56:30;;;;;;;13.80;12.60;;;15.10;99.90;;;;;;5033135;28;20467;-70
2023/08/06 05:59:48;;;;;;;13.60;12.47;;;15.10;99.90;;;;;;5033282;28;20477;-70
2023/08/06 06:02:16;;;;;;;13.00;11.90;;;15.20;99.90;;;;;;5033177;28;20420;-70
2023/08/06 06:04:44;;;;;;;13.53;12.53;;;15.20;99.90;;;;;;5033459;28;20417;-70
2023/08/06 06:07:12;;;;;;;14.43;13.20;;;15.20;99.90;;;;;;5033097;28;20445;-70
2023/08/06 06:09:41;;;;;;;15.20;13.90;;;15.20;99.90;;;;;;5033101;28;20416;-70
2023/08/06 06:12:09;;;;;;;15.47;14.27;;;15.20;99.90;;;;;;5032912;28;20846;-70
2023/08/06 06:14:37;;;;;;;16.30;14.83;;;15.30;99.90;;;;;;5033113;28;20500;-70
2023/08/06 06:17:06;;;;;;;15.50;14.30;;;15.30;99.90;;;;;;5033292;28;20467;-70
2023/08/06 06:19:34;;;;;;;14.90;13.50;;;15.30;99.90;;;;;;5033208;28;20990;-70
2023/08/06 06:22:02;;;;;;;13.67;12.63;;;15.30;99.90;;;;;;5031732;28;20863;-70
2023/08/06 06:24:30;;;;;;;14.87;13.67;;;15.30;99.90;;;;;;5032855;28;20462;-70
2023/08/06 06:27:00;;;;;;;14.43;13.33;;;15.40;99.90;;;;;;5031934;28;20450;-70
2023/08/06 06:29:28;;;;;;;14.30;13.20;;;15.40;99.90;;;;;;5032960;28;20435;-70
2023/08/06 06:31:56;;;;;;;13.00;12.00;;;15.40;99.90;;;;;;5033188;28;20418;-70
2023/08/06 06:34:24;;;;;;;13.70;12.70;;;15.40;99.90;;;;;;5033025;28;20450;-70
2023/08/06 06:36:52;;;;;;;12.40;11.40;;;15.50;99.90;;;;;;5032779;28;20549;-70
2023/08/06 06:39:21;;;;;;;12.07;10.97;;;15.50;99.90;;;;;;5032881;28;20489;-70
2023/08/06 06:41:49;;;;;;;14.60;12.73;;;15.50;99.90;;;;;;5033097;28;20497;-70
2023/08/06 06:44:26;;;;;;;14.43;13.33;;;15.60;99.90;;;;;;5031548;28;20473;-70
2023/08/06 06:46:55;;;;;;;11.77;10.87;;;15.60;99.90;;;;;;5032800;28;20413;-70
2023/08/06 06:49:23;;;;;;;11.57;10.60;;;15.70;99.90;;;;;;5032956;28;20961;-70
2023/08/06 06:51:51;;;;;;;13.30;12.23;;;15.70;99.90;;;;;;5032548;28;20422;-70
2023/08/06 06:54:20;;;;;;;13.10;12.00;;;15.80;99.90;;;;;;5031303;28;20439;-70
2023/08/06 06:56:48;;;;;;;12.03;11.10;;;15.80;99.90;;;;;;5032710;28;20470;-70
2023/08/06 06:59:16;;;;;;;13.53;12.40;;;15.80;99.90;;;;;;5032943;28;20414;-70
2023/08/06 07:01:45;;;;;;;12.07;11.13;;;15.90;99.90;;;;;;5033073;28;20525;-69
2023/08/06 07:04:13;;;;;;;13.27;12.07;;;15.90;99.90;;;;;;5032847;28;20472;-69
2023/08/06 07:06:41;;;;;;;12.73;11.43;;;15.90;99.90;;;;;;5032867;28;20446;-70
2023/08/06 07:09:10;;;;;;;12.17;11.20;;;15.90;99.90;;;;;;5033052;28;20851;-69
2023/08/06 07:11:38;;;;;;;12.60;11.60;;;16.00;99.90;;;;;;5033549;28;20455;-69
2023/08/06 07:14:06;;;;;;;12.73;11.63;;;16.00;99.90;;;;;;5036172;28;20455;-70
2023/08/06 07:16:34;;;;;;;12.17;11.17;;;16.10;99.90;;;;;;5036439;28;20420;-70
2023/08/06 07:19:05;;;;;;;13.20;12.20;;;16.20;99.90;;;;;;5034742;28;20445;-70
2023/08/06 07:21:33;;;;;;;15.10;13.70;;;16.30;99.90;;;;;;5036770;28;20432;-70
2023/08/06 07:24:01;;;;;;;13.37;12.37;;;16.50;99.90;;;;;;5035954;28;20461;-70
2023/08/06 07:26:29;;;;;;;13.40;12.40;;;16.50;99.90;;;;;;5035954;28;20865;-70
2023/08/06 07:28:57;;;;;;;11.00;10.10;;;16.60;99.90;;;;;;5034864;28;20450;-70
2023/08/06 07:31:26;;;;;;;12.00;11.00;;;16.70;99.90;;;;;;5036221;28;20864;-70
2023/08/06 07:33:54;;;;;;;12.10;11.10;;;16.80;99.90;;;;;;5036002;28;20467;-70
2023/08/06 07:36:24;;;;;;;10.90;10.00;;;16.80;99.90;;;;;;5034481;28;20497;-70
2023/08/06 07:38:55;;;;;;;10.20;9.30;;;16.90;99.90;;;;;;5035830;28;20833;-70
2023/08/06 07:41:24;;;;;;;9.40;8.67;;;17.10;99.90;;;;;;5035994;28;20400;-71
2023/08/06 07:43:52;;;;;;;9.50;8.70;;;17.20;99.90;;;;;;5035707;28;20443;-70
2023/08/06 07:46:20;;;;;;;16.33;14.90;;;17.30;99.90;;;;;;5035741;28;20493;-70
2023/08/06 07:48:48;;;;;;;10.67;9.67;;;17.30;99.90;;;;;;5035669;28;20410;-71
2023/08/06 07:51:16;;;;;;;10.40;9.57;;;17.20;99.90;;;;;;5035892;28;20416;-70
2023/08/06 07:53:46;;;;;;;10.33;9.50;;;17.20;99.90;;;;;;5035492;28;20463;-70
2023/08/06 07:56:15;;;;;;;9.73;9.00;;;17.10;99.90;;;;;;5035905;28;20789;-70
2023/08/06 07:58:43;;;;;;;9.03;8.43;;;17.10;99.90;;;;;;5035407;28;20470;-70
2023/08/06 08:01:11;;;;;;;9.83;9.10;;;17.10;99.90;;;;;;5035284;28;20445;-70
2023/08/06 08:03:39;;;;;;;9.50;8.53;;;17.10;99.90;;;;;;5033991;28;20462;-70
2023/08/06 08:06:07;;;;;;;8.90;8.20;;;17.10;99.90;;;;;;5035351;28;20434;-70
2023/08/06 08:08:38;;;;;;;9.60;8.70;;;17.10;99.90;;;;;;5035382;28;20813;-70
2023/08/06 08:11:08;;;;;;;10.20;9.30;;;17.10;99.90;;;;;;5035317;28;20429;-70
2023/08/06 08:13:36;;;;;;;8.47;7.87;;;17.10;99.90;;;;;;5035009;28;20437;-70
2023/08/06 08:16:04;;;;;;;9.40;8.60;;;17.20;99.90;;;;;;5035325;28;20496;-70
2023/08/06 08:18:33;;;;;;;10.50;9.70;;;17.20;99.90;;;;;;5035220;28;20521;-70
2023/08/06 08:21:01;;;;;;;9.03;8.33;;;17.30;99.90;;;;;;5035398;28;20760;-69
2023/08/06 08:23:31;;;;;;;8.83;7.97;;;17.30;99.90;;;;;;5034586;28;20473;-70
2023/08/06 08:25:59;;;;;;;8.00;7.40;;;17.40;99.90;;;;;;5035385;28;20791;-70
2023/08/06 08:28:28;;;;;;;9.03;8.33;;;17.40;99.90;;;;;;5035190;28;20449;-70
2023/08/06 08:30:56;;;;;;;8.00;7.37;;;17.50;99.90;;;;;;5035129;28;20836;-70
2023/08/06 08:33:25;;;;;;;7.90;7.10;;;17.60;99.90;;;;;;5033609;28;20481;-69
2023/08/06 08:35:53;;;;;;;7.37;6.77;;;17.70;99.90;;;;;;5034703;28;20776;-70
2023/08/06 08:38:21;;;;;;;7.50;6.90;;;17.70;99.90;;;;;;5033262;28;20467;-70
2023/08/06 08:40:54;;;;;;;7.40;6.80;;;17.80;99.90;;;;;;5034593;28;20434;-70
2023/08/06 08:43:23;;;;;;;7.77;7.00;;;17.80;99.90;;;;;;5035498;28;20460;-70
2023/08/06 08:45:54;;;;;;;7.97;7.37;;;17.90;99.90;;;;;;5033209;28;20469;-70
2023/08/06 08:48:23;;;;;;;8.13;7.53;;;18.00;99.90;;;;;;5034659;28;20836;-70
2023/08/06 08:50:52;;;;;;;6.80;6.30;;;18.10;99.90;;;;;;5034559;28;20405;-70
2023/08/06 08:53:22;;;;;;;8.37;7.57;;;18.20;99.90;;;;;;5034399;28;20799;-70
2023/08/06 08:55:50;;;;;;;7.50;6.83;;;18.30;99.90;;;;;;5033182;28;20465;-69
2023/08/06 08:58:18;;;;;;;7.50;6.90;;;18.50;99.90;;;;;;5033300;28;20894;-69
2023/08/06 09:00:48;;;;;;;6.80;6.30;;;18.50;99.90;;;;;;5034081;28;20485;-70
2023/08/06 09:03:18;;;;;;;6.97;6.47;;;18.60;99.90;;;;;;5033863;28;20451;-70
2023/08/06 09:05:50;;;;;;;7.30;6.70;;;18.60;99.90;;;;;;5034322;28;20438;-70
2023/08/06 09:08:22;;;;;;;8.57;7.97;;;18.60;99.90;;;;;;5035418;28;20432;-70
2023/08/06 09:10:52;;;;;;;10.30;9.27;;;18.70;99.90;;;;;;5034813;28;20435;-70
2023/08/06 09:13:21;;;;;;;12.80;11.47;;;18.70;99.90;;;;;;5034922;28;20483;-70
2023/08/06 09:15:50;;;;;;;17.77;15.90;;;18.70;99.90;;;;;;5035114;28;20443;-70
2023/08/06 09:18:26;;;;;;;18.00;16.30;;;18.70;99.90;;;;;;5034860;28;20848;-70
2023/08/06 09:20:54;;;;;;;13.93;12.73;;;18.80;99.90;;;;;;5034693;28;20447;-70
2023/08/06 09:23:30;;;;;;;15.97;14.57;;;18.80;99.90;;;;;;5034556;28;20462;-70
2023/08/06 09:25:58;;;;;;;18.60;16.63;;;18.90;99.90;;;;;;5033180;28;20464;-70
2023/08/06 09:28:39;;;;;;;19.07;17.20;;;18.90;99.90;;;;;;5033313;28;20439;-70
2023/08/06 09:31:07;;;;;;;17.73;16.27;;;19.00;99.90;;;;;;5034586;28;20447;-70
2023/08/06 09:33:38;;;;;;;17.80;16.20;;;19.00;99.90;;;;;;5034417;28;20459;-70
2023/08/06 09:36:11;;;;;;;17.97;16.30;;;19.10;99.90;;;;;;5034358;28;20500;-70
2023/08/06 09:38:40;;;;;;;15.73;14.33;;;19.10;99.90;;;;;;5034199;28;20505;-70
2023/08/06 09:41:09;;;;;;;12.00;10.97;;;19.10;99.90;;;;;;5034342;28;20944;-70
2023/08/06 09:43:44;;;;;;;11.70;10.70;;;19.10;99.90;;;;;;5035039;28;20555;-70
2023/08/06 09:46:14;;;;;;;11.33;10.43;;;19.20;99.90;;;;;;5034398;28;20438;-70
2023/08/06 09:48:46;;;;;;;11.13;10.23;;;19.10;99.90;;;;;;5034406;28;20438;-70
2023/08/06 09:51:15;;;;;;;8.93;8.33;;;19.20;99.90;;;;;;5034792;28;20420;-70
2023/08/06 09:53:44;;;;;;;8.90;8.10;;;19.20;99.90;;;;;;5034375;28;20829;-70
2023/08/06 09:56:14;;;;;;;8.20;7.50;;;19.30;99.90;;;;;;5034196;28;20939;-70
2023/08/06 09:58:43;;;;;;;7.67;7.07;;;19.30;99.90;;;;;;5034679;28;20456;-70
2023/08/06 10:01:13;;;;;;;7.60;6.90;;;19.40;99.90;;;;;;5034672;28;20435;-70
2023/08/06 10:03:43;;;;;;;7.93;7.30;;;19.50;99.90;;;;;;5032898;28;20474;-70
2023/08/06 10:06:12;;;;;;;8.97;7.97;;;19.50;99.90;;;;;;5034582;28;20454;-70
2023/08/06 10:08:42;;;;;;;6.70;6.10;;;19.50;99.90;;;;;;5034356;28;20462;-69
2023/08/06 10:11:11;;;;;;;5.23;4.73;;;19.60;99.90;;;;;;5034131;28;20439;-70
2023/08/06 10:13:39;;;;;;;3.97;3.67;;;19.70;99.90;;;;;;5034086;28;20562;-70
2023/08/06 10:16:08;;;;;;;4.80;4.30;;;19.60;99.90;;;;;;5034125;28;20794;-70
2023/08/06 10:18:39;;;;;;;5.80;4.53;;;19.70;99.90;;;;;;5034257;28;20534;-70
2023/08/06 10:21:10;;;;;;;5.00;4.50;;;19.80;99.90;;;;;;5033938;28;20554;-70
2023/08/06 10:23:41;;;;;;;6.60;4.10;;;19.80;99.90;;;;;;5032853;28;20485;-70
2023/08/06 10:26:09;;;;;;;4.23;3.93;;;19.90;99.90;;;;;;5033922;28;20504;-70
2023/08/06 10:28:39;;;;;;;3.57;3.27;;;20.00;99.90;;;;;;5032933;28;20435;-70
2023/08/06 10:31:07;;;;;;;3.63;3.33;;;20.00;99.90;;;;;;5031671;28;20450;-70
2023/08/06 10:33:44;;;;;;;3.50;3.17;;;20.00;99.90;;;;;;5032835;28;20459;-70
2023/08/06 10:36:14;;;;;;;3.97;3.67;;;20.10;99.90;;;;;;5033149;28;20881;-70
2023/08/06 10:38:47;;;;;;;4.30;3.90;;;20.10;99.90;;;;;;5033408;28;20419;-70
2023/08/06 10:41:28;;;;;;;4.10;3.70;;;20.20;99.90;;;;;;5031474;28;20432;-70
2023/08/06 10:44:07;;;;;;;4.67;4.30;;;20.20;99.90;;;;;;5032973;28;20458;-70
2023/08/06 10:46:36;;;;;;;5.03;4.60;;;20.20;99.90;;;;;;5035051;28;20827;-70
2023/08/06 10:49:07;;;;;;;5.13;4.73;;;20.30;99.90;;;;;;5035252;28;20455;-70
2023/08/06 10:51:38;;;;;;;4.43;4.13;;;20.30;99.90;;;;;;5036427;28;20473;-70
2023/08/06 10:54:06;;;;;;;4.53;4.03;;;20.30;99.90;;;;;;5036405;28;21078;-70
2023/08/06 10:56:40;;;;;;;3.70;3.40;;;20.40;99.90;;;;;;5036931;28;20473;-70
2023/08/06 10:59:10;;;;;;;4.50;4.20;;;20.40;99.90;;;;;;5035022;28;20482;-70
2023/08/06 11:01:38;;;;;;;3.20;2.90;;;20.50;99.90;;;;;;5036332;28;20435;-70
2023/08/06 11:04:07;;;;;;;4.20;3.90;;;20.60;99.90;;;;;;5036775;28;20512;-70
2023/08/06 11:06:36;;;;;;;3.60;3.40;;;20.60;99.90;;;;;;5036440;28;20492;-70
2023/08/06 11:09:04;;;;;;;3.60;3.40;;;20.60;99.90;;;;;;5036473;28;20435;-70
2023/08/06 11:11:32;;;;;;;3.27;2.97;;;20.60;99.90;;;;;;5036396;28;20493;-70
2023/08/06 11:14:00;;;;;;;3.10;2.70;;;20.70;99.90;;;;;;5036179;28;20676;-70
2023/08/06 11:16:28;;;;;;;3.57;3.27;;;20.70;99.90;;;;;;5036045;28;20435;-70
2023/08/06 11:18:57;;;;;;;2.90;2.70;;;20.70;99.90;;;;;;5035996;28;20434;-70
2023/08/06 11:21:26;;;;;;;2.87;2.67;;;20.70;99.90;;;;;;5035972;28;20439;-70
2023/08/06 11:23:56;;;;;;;3.30;3.03;;;20.70;99.90;;;;;;5035870;28;20455;-70
2023/08/06 11:26:24;;;;;;;3.47;3.17;;;20.60;99.90;;;;;;5036223;28;20420;-70
2023/08/06 11:28:52;;;;;;;3.40;3.20;;;20.70;99.90;;;;;;5035830;28;20538;-70
2023/08/06 11:31:21;;;;;;;3.63;3.17;;;20.60;99.90;;;;;;5035840;28;20523;-70
2023/08/06 11:33:50;;;;;;;3.20;2.93;;;20.60;99.90;;;;;;5035732;28;20536;-70
2023/08/06 11:36:30;;;;;;;3.33;3.10;;;20.60;99.90;;;;;;5034398;28;20445;-70
2023/08/06 11:39:00;;;;;;;3.87;3.57;;;20.60;99.90;;;;;;5035671;28;20451;-70
2023/08/06 11:41:30;;;;;;;3.60;3.30;;;20.60;99.90;;;;;;5035581;28;20450;-70
2023/08/06 11:43:58;;;;;;;4.60;3.17;;;20.60;99.90;;;;;;5035875;28;20455;-70
2023/08/06 11:46:26;;;;;;;3.43;2.97;;;20.70;99.90;;;;;;5036373;28;20800;-70
2023/08/06 11:48:55;;;;;;;3.43;3.13;;;20.80;99.90;;;;;;5035527;28;20964;-70
2023/08/06 11:51:25;;;;;;;3.50;2.30;;;20.90;99.90;;;;;;5036011;28;20439;-70
2023/08/06 11:53:56;;;;;;;2.40;2.10;;;21.00;99.90;;;;;;5035596;28;20486;-70
2023/08/06 11:56:27;;;;;;;2.93;2.70;;;21.10;99.90;;;;;;5035642;28;20498;-70
2023/08/06 11:58:56;;;;;;;3.13;2.80;;;21.10;99.90;;;;;;5034832;28;20497;-70
2023/08/06 12:01:25;;;;;;;2.80;2.60;;;21.10;99.90;;;;;;5033831;28;20471;-70
2023/08/06 12:03:53;;;;;;;4.37;3.00;;;21.20;99.90;;;;;;5035637;28;20455;-70
2023/08/06 12:06:21;;;;;;;3.07;2.83;;;21.30;99.90;;;;;;5035193;28;20439;-70
2023/08/06 12:08:50;;;;;;;3.47;3.17;;;21.40;99.90;;;;;;5035395;28;20445;-70
2023/08/06 12:11:22;;;;;;;3.00;2.80;;;21.50;99.90;;;;;;5035120;28;20550;-70
2023/08/06 12:13:53;;;;;;;4.20;3.00;;;21.50;99.90;;;;;;5035288;28;21018;-70
2023/08/06 12:16:21;;;;;;;3.37;2.90;;;21.60;99.90;;;;;;5033678;28;20955;-70
2023/08/06 12:18:50;;;;;;;3.87;3.57;;;21.60;99.90;;;;;;5034839;28;20437;-70
2023/08/06 12:21:18;;;;;;;3.50;3.20;;;21.60;99.90;;;;;;5034821;28;20533;-70
2023/08/06 12:23:46;;;;;;;3.53;3.10;;;21.60;99.90;;;;;;5034842;28;20451;-70
2023/08/06 12:26:14;;;;;;;2.90;2.70;;;21.60;99.90;;;;;;5035071;28;20439;-70
2023/08/06 12:28:42;;;;;;;3.40;3.20;;;21.60;99.90;;;;;;5034816;28;20923;-70
2023/08/06 12:31:11;;;;;;;3.60;3.30;;;21.50;99.90;;;;;;5034666;28;20431;-70
2023/08/06 12:33:39;;;;;;;3.60;3.30;;;21.50;99.90;;;;;;5034543;28;20841;-70
2023/08/06 12:36:08;;;;;;;4.90;3.70;;;21.50;99.90;;;;;;5033275;28;21039;-70
2023/08/06 12:38:36;;;;;;;4.83;4.17;;;21.50;99.90;;;;;;5034546;28;20982;-70
2023/08/06 12:41:04;;;;;;;3.37;3.07;;;21.50;99.90;;;;;;5034446;28;20493;-70
2023/08/06 12:43:32;;;;;;;4.50;4.10;;;21.40;99.90;;;;;;5036152;28;20557;-70
2023/08/06 12:46:00;;;;;;;3.87;3.57;;;21.40;99.90;;;;;;5034674;28;20477;-71
2023/08/06 12:48:30;;;;;;;3.77;3.47;;;21.40;99.90;;;;;;5034261;28;20447;-71
2023/08/06 12:50:58;;;;;;;3.63;3.33;;;21.40;99.90;;;;;;5033058;28;20449;-70